createdAt,value
2019-03-19T00:02:00.594Z,0.00
2019-03-19T00:04:31.350Z,0.00
2019-03-19T00:06:59.253Z,-0.10
2019-03-19T00:09:27.517Z,0.00
2019-03-19T00:11:57.741Z,0.00
2019-03-19T00:14:25.148Z,0.00
2019-03-19T00:16:53.160Z,-0.10
2019-03-19T00:19:22.517Z,-0.20
2019-03-19T00:21:50.705Z,-0.20
2019-03-19T00:24:18.979Z,-0.30
2019-03-19T00:26:49.698Z,-0.30
2019-03-19T00:29:18.558Z,-0.20
2019-03-19T00:31:49.286Z,-0.20
2019-03-19T00:34:23.348Z,-0.20
2019-03-19T00:36:51.486Z,-0.20
2019-03-19T00:39:19.479Z,-0.20
2019-03-19T00:41:48.660Z,-0.20
2019-03-19T00:44:19.925Z,-0.20
2019-03-19T00:46:48.261Z,-0.10
2019-03-19T00:49:16.325Z,-0.10
2019-03-19T00:51:44.351Z,-0.10
2019-03-19T00:54:12.510Z,-0.20
2019-03-19T00:56:43.508Z,-0.20
2019-03-19T00:59:11.482Z,-0.20
2019-03-19T01:01:39.498Z,-0.10
2019-03-19T01:04:07.466Z,-0.20
2019-03-19T01:06:35.487Z,-0.20
2019-03-19T01:09:05.785Z,-0.20
2019-03-19T01:11:33.829Z,-0.20
2019-03-19T01:14:01.882Z,-0.20
2019-03-19T01:16:30.078Z,-0.30
2019-03-19T01:18:58.505Z,-0.30
2019-03-19T01:21:26.589Z,-0.20
2019-03-19T01:23:54.932Z,-0.20
2019-03-19T01:26:31.695Z,-0.20
2019-03-19T01:29:00.133Z,-0.20
2019-03-19T01:31:28.228Z,-0.20
2019-03-19T01:34:02.754Z,-0.20
2019-03-19T01:36:31.038Z,-0.30
2019-03-19T01:39:01.918Z,-0.30
2019-03-19T01:41:33.350Z,-0.40
2019-03-19T01:44:01.489Z,-0.40
2019-03-19T01:46:29.621Z,-0.50
2019-03-19T01:48:58.140Z,-0.40
2019-03-19T01:51:26.256Z,-0.40
2019-03-19T01:53:54.342Z,-0.50
2019-03-19T01:56:22.553Z,-0.50
2019-03-19T01:58:50.517Z,-0.50
2019-03-19T02:01:19.171Z,-0.60
2019-03-19T02:03:47.186Z,-0.60
2019-03-19T02:06:15.474Z,-0.40
2019-03-19T02:08:43.548Z,-0.40
2019-03-19T02:11:11.679Z,-0.50
2019-03-19T02:13:39.901Z,-0.50
2019-03-19T02:16:08.126Z,-0.60
2019-03-19T02:18:36.604Z,-0.70
2019-03-19T02:21:04.893Z,-0.70
2019-03-19T02:23:39.592Z,-0.60
2019-03-19T02:26:15.891Z,-0.60
2019-03-19T02:28:38.033Z,-0.80
2019-03-19T02:31:06.443Z,-0.70
2019-03-19T02:33:34.626Z,-0.70
2019-03-19T02:36:02.756Z,-0.80
2019-03-19T02:38:31.040Z,-0.70
2019-03-19T02:41:00.277Z,-0.60
2019-03-19T02:43:28.555Z,-0.60
2019-03-19T02:45:56.866Z,-0.70
2019-03-19T02:48:24.940Z,-0.80
2019-03-19T02:50:53.485Z,-0.70
2019-03-19T02:53:21.910Z,-0.70
2019-03-19T02:55:50.307Z,-0.70
2019-03-19T02:58:18.667Z,-0.60
2019-03-19T03:00:46.937Z,-0.50
2019-03-19T03:03:15.251Z,-0.60
2019-03-19T03:08:23.539Z,-0.60
2019-03-19T03:10:51.882Z,-0.60
2019-03-19T03:13:28.599Z,-0.70
2019-03-19T03:15:56.974Z,-0.80
2019-03-19T03:18:25.056Z,-0.90
2019-03-19T03:20:53.115Z,-0.80
2019-03-19T03:23:21.260Z,-0.80
2019-03-19T03:25:49.331Z,-0.70
2019-03-19T03:28:17.470Z,-0.70
2019-03-19T03:30:45.543Z,-0.70
2019-03-19T03:33:13.555Z,-0.80
2019-03-19T03:35:42.787Z,-0.70
2019-03-19T03:38:10.713Z,-0.60
2019-03-19T03:40:38.942Z,-0.70
2019-03-19T03:43:07.333Z,-0.80
2019-03-19T03:45:35.597Z,-0.90
2019-03-19T03:48:03.966Z,-0.90
2019-03-19T03:50:32.102Z,-0.80
2019-03-19T03:53:00.454Z,-0.80
2019-03-19T03:55:31.100Z,-0.90
2019-03-19T03:57:59.874Z,-0.80
2019-03-19T04:00:27.893Z,-0.80
2019-03-19T04:02:55.962Z,-0.70
2019-03-19T04:05:24.940Z,-0.70
2019-03-19T04:07:54.471Z,-0.80
2019-03-19T04:10:22.519Z,-0.80
2019-03-19T04:12:50.804Z,-0.80
2019-03-19T04:15:18.967Z,-0.80
2019-03-19T04:17:47.076Z,-0.70
2019-03-19T04:20:15.822Z,-0.70
2019-03-19T04:22:43.895Z,-0.70
2019-03-19T04:25:12.115Z,-0.70
2019-03-19T04:27:40.997Z,-0.80
2019-03-19T04:30:09.650Z,-0.90
2019-03-19T04:32:37.949Z,-0.90
2019-03-19T04:35:07.391Z,-1.00
2019-03-19T04:37:35.530Z,-1.00
2019-03-19T04:40:04.213Z,-1.00
2019-03-19T04:42:32.373Z,-0.90
2019-03-19T04:45:00.548Z,-0.90
2019-03-19T04:47:28.571Z,-0.90
2019-03-19T04:49:56.927Z,-0.90
2019-03-19T04:52:25.062Z,-0.90
2019-03-19T04:54:53.037Z,-0.90
2019-03-19T04:57:26.735Z,-1.00
2019-03-19T04:59:50.846Z,-1.00
2019-03-19T05:02:19.180Z,-1.00
2019-03-19T05:04:47.370Z,-0.90
2019-03-19T05:07:15.286Z,-0.90
2019-03-19T05:09:43.431Z,-0.90
2019-03-19T05:12:11.414Z,-0.90
2019-03-19T05:14:40.426Z,-0.90
2019-03-19T05:17:09.843Z,-0.90
2019-03-19T05:19:46.589Z,-0.90
2019-03-19T05:35:47.029Z,-0.90
2019-03-19T05:38:38.773Z,-0.90
2019-03-19T05:41:31.789Z,-1.00
2019-03-19T05:44:38.027Z,-0.80
2019-03-19T05:47:06.121Z,-0.80
2019-03-19T05:49:35.511Z,-0.80
2019-03-19T05:52:03.752Z,-0.80
2019-03-19T05:54:34.947Z,-0.80
2019-03-19T05:57:03.326Z,-0.70
2019-03-19T05:59:32.372Z,-0.90
2019-03-19T06:02:01.427Z,-0.80
2019-03-19T06:04:29.375Z,-0.80
2019-03-19T06:06:57.517Z,-0.80
2019-03-19T06:09:25.434Z,-0.90
2019-03-19T06:11:53.373Z,-0.80
2019-03-19T06:14:21.317Z,-0.70
2019-03-19T06:16:49.208Z,-0.70
2019-03-19T06:19:17.261Z,-0.70
2019-03-19T06:21:45.209Z,-0.60
2019-03-19T06:24:13.202Z,-0.60
2019-03-19T06:26:41.430Z,-0.50
2019-03-19T06:29:09.324Z,-0.40
2019-03-19T06:31:37.326Z,-0.30
2019-03-19T06:34:05.251Z,-0.20
2019-03-19T06:36:33.145Z,-0.10
2019-03-19T06:39:01.128Z,-0.10
2019-03-19T06:41:29.057Z,-0.10
2019-03-19T06:43:58.033Z,-0.10
2019-03-19T06:46:26.292Z,0.00
2019-03-19T06:48:54.172Z,0.00
2019-03-19T06:51:22.088Z,0.00
2019-03-19T06:53:50.180Z,0.20
2019-03-19T06:56:18.073Z,0.30
2019-03-19T06:58:45.947Z,0.40
2019-03-19T07:01:17.385Z,0.50
2019-03-19T07:03:46.460Z,0.60
2019-03-19T07:06:14.352Z,0.70
2019-03-19T07:08:42.556Z,0.70
2019-03-19T07:11:10.513Z,0.80
2019-03-19T07:13:38.389Z,0.90
2019-03-19T07:16:06.405Z,1.00
2019-03-19T07:18:35.254Z,1.00
2019-03-19T07:21:03.198Z,1.10
2019-03-19T07:23:33.050Z,1.20
2019-03-19T07:26:01.009Z,1.20
2019-03-19T07:28:30.510Z,1.30
2019-03-19T07:30:58.745Z,1.40
2019-03-19T07:33:26.653Z,1.70
2019-03-19T07:35:54.612Z,2.10
2019-03-19T07:38:22.506Z,2.20
2019-03-19T07:40:50.393Z,2.40
2019-03-19T07:43:18.288Z,2.60
2019-03-19T07:45:46.181Z,2.60
2019-03-19T07:48:28.606Z,2.80
2019-03-19T07:50:56.500Z,2.90
2019-03-19T07:53:24.473Z,3.10
2019-03-19T07:55:53.699Z,3.10
2019-03-19T07:58:32.732Z,3.20
2019-03-19T08:00:51.549Z,3.30
2019-03-19T08:03:19.509Z,3.30
2019-03-19T08:05:47.414Z,3.40
2019-03-19T08:08:15.354Z,3.50
2019-03-19T08:10:43.360Z,3.60
2019-03-19T08:13:11.291Z,3.70
2019-03-19T08:15:39.177Z,3.80
2019-03-19T08:18:07.397Z,3.80
2019-03-19T08:20:35.290Z,3.90
2019-03-19T08:23:04.541Z,4.10
2019-03-19T08:25:32.441Z,4.20
2019-03-19T08:28:01.141Z,4.30
2019-03-19T08:30:30.246Z,4.50
2019-03-19T08:32:58.228Z,4.60
2019-03-19T08:35:27.058Z,4.70
2019-03-19T08:37:55.214Z,4.70
2019-03-19T08:40:23.220Z,4.80
2019-03-19T08:42:51.561Z,4.90
2019-03-19T08:45:19.769Z,4.90
2019-03-19T08:47:48.186Z,4.90
2019-03-19T08:50:16.193Z,4.80
2019-03-19T08:52:45.654Z,4.80
2019-03-19T08:55:13.979Z,4.80
2019-03-19T08:57:41.889Z,4.90
2019-03-19T09:00:11.723Z,4.90
2019-03-19T09:02:39.628Z,5.10
2019-03-19T09:05:07.896Z,5.20
2019-03-19T09:07:35.785Z,5.30
2019-03-19T09:10:07.409Z,5.30
2019-03-19T09:12:35.625Z,5.40
2019-03-19T09:15:04.220Z,5.50
2019-03-19T09:17:32.127Z,5.60
2019-03-19T09:20:00.557Z,5.60
2019-03-19T09:22:29.833Z,5.60
2019-03-19T09:24:57.873Z,5.50
2019-03-19T09:27:25.772Z,5.40
2019-03-19T09:29:53.982Z,5.40
2019-03-19T09:32:23.259Z,5.40
2019-03-19T09:34:51.128Z,5.70
2019-03-19T09:37:19.265Z,5.70
2019-03-19T09:39:47.236Z,5.90
2019-03-19T09:42:15.150Z,6.00
2019-03-19T09:44:43.115Z,6.00
2019-03-19T09:47:11.279Z,5.80
2019-03-19T09:49:39.173Z,6.00
2019-03-19T09:52:07.118Z,6.10
2019-03-19T09:54:35.030Z,6.10
2019-03-19T09:57:03.518Z,6.20
2019-03-19T09:59:34.481Z,6.30
2019-03-19T10:02:02.355Z,6.30
2019-03-19T10:04:30.237Z,6.40
2019-03-19T10:07:05.710Z,6.50
2019-03-19T10:09:27.750Z,6.50
2019-03-19T10:11:55.662Z,6.60
2019-03-19T10:14:23.897Z,6.60
2019-03-19T10:16:57.641Z,6.50
2019-03-19T10:19:31.444Z,6.30
2019-03-19T10:22:02.809Z,6.20
2019-03-19T10:24:30.917Z,6.00
2019-03-19T10:27:01.675Z,6.10
2019-03-19T10:29:37.875Z,6.20
2019-03-19T10:31:59.237Z,6.10
2019-03-19T10:34:29.884Z,6.30
2019-03-19T10:36:57.766Z,6.40
2019-03-19T10:39:25.739Z,6.40
2019-03-19T10:41:53.623Z,6.50
2019-03-19T10:44:21.512Z,6.50
2019-03-19T10:46:49.405Z,6.60
2019-03-19T10:49:20.540Z,6.70
2019-03-19T10:51:48.418Z,6.80
2019-03-19T10:54:16.316Z,7.10
2019-03-19T10:56:44.664Z,7.10
2019-03-19T10:59:12.548Z,7.20
2019-03-19T11:01:40.516Z,7.30
2019-03-19T11:04:08.548Z,7.30
2019-03-19T11:06:36.562Z,6.80
2019-03-19T11:09:06.014Z,6.90
2019-03-19T11:11:34.634Z,6.80
2019-03-19T11:14:02.600Z,6.70
2019-03-19T11:16:40.240Z,7.00
2019-03-19T11:19:08.505Z,7.20
2019-03-19T11:21:36.546Z,7.30
2019-03-19T11:24:05.098Z,7.30
2019-03-19T11:26:33.297Z,7.40
2019-03-19T11:29:01.514Z,7.70
2019-03-19T11:31:29.417Z,7.80
2019-03-19T11:34:00.658Z,7.80
2019-03-19T11:36:28.790Z,7.80
2019-03-19T11:38:56.668Z,7.80
2019-03-19T11:41:24.882Z,8.00
2019-03-19T11:43:52.857Z,8.00
2019-03-19T11:46:21.006Z,8.20
2019-03-19T11:48:48.907Z,8.30
2019-03-19T11:51:17.025Z,8.20
2019-03-19T11:53:44.908Z,8.30
2019-03-19T11:56:13.133Z,8.30
2019-03-19T11:58:41.093Z,8.50
2019-03-19T12:01:09.069Z,8.60
2019-03-19T12:03:37.274Z,8.80
2019-03-19T12:06:05.466Z,8.90
2019-03-19T12:08:33.370Z,9.40
2019-03-19T12:11:01.335Z,9.80
2019-03-19T12:13:29.224Z,9.70
2019-03-19T12:15:57.337Z,10.70
2019-03-19T12:18:25.220Z,11.70
2019-03-19T12:20:53.145Z,12.30
2019-03-19T12:23:21.116Z,12.90
2019-03-19T12:25:49.031Z,13.50
2019-03-19T12:28:16.925Z,13.80
2019-03-19T12:30:45.909Z,13.80
2019-03-19T12:33:15.627Z,13.90
2019-03-19T12:35:44.588Z,15.00
2019-03-19T12:38:14.073Z,15.40
2019-03-19T12:40:43.082Z,13.50
2019-03-19T12:43:11.958Z,13.80
2019-03-19T12:45:41.145Z,13.10
2019-03-19T12:48:10.088Z,13.30
2019-03-19T12:50:38.886Z,14.50
2019-03-19T12:53:07.773Z,15.50
2019-03-19T12:55:36.873Z,15.80
2019-03-19T12:58:06.043Z,16.10
2019-03-19T13:00:35.189Z,16.40
2019-03-19T13:03:04.449Z,15.80
2019-03-19T13:05:33.415Z,15.80
2019-03-19T13:08:02.221Z,16.60
2019-03-19T13:10:31.212Z,16.10
2019-03-19T13:13:00.112Z,15.30
2019-03-19T13:15:28.997Z,14.90
2019-03-19T13:18:00.925Z,16.60
2019-03-19T13:20:29.834Z,16.60
2019-03-19T13:22:58.686Z,16.40
2019-03-19T13:25:27.676Z,17.20
2019-03-19T13:27:56.720Z,18.10
2019-03-19T13:30:25.766Z,18.80
2019-03-19T13:32:54.747Z,18.00
2019-03-19T13:35:23.653Z,18.50
2019-03-19T13:37:52.533Z,19.70
2019-03-19T13:40:21.600Z,18.20
2019-03-19T13:42:50.746Z,17.40
2019-03-19T13:45:19.562Z,17.80
2019-03-19T13:47:48.882Z,19.90
2019-03-19T13:50:19.194Z,18.60
2019-03-19T13:52:48.169Z,19.00
2019-03-19T13:55:19.696Z,19.80
2019-03-19T13:57:48.771Z,19.20
2019-03-19T14:00:17.829Z,19.60
2019-03-19T14:02:46.722Z,18.40
2019-03-19T14:05:15.726Z,18.40
2019-03-19T14:07:44.897Z,18.00
2019-03-19T14:10:14.183Z,18.20
2019-03-19T14:12:43.053Z,17.70
2019-03-19T14:15:13.421Z,18.90
2019-03-19T14:17:42.561Z,19.10
2019-03-19T14:20:13.371Z,19.80
2019-03-19T14:22:45.032Z,19.90
2019-03-19T14:25:15.437Z,18.70
2019-03-19T14:27:44.480Z,18.70
2019-03-19T14:30:15.601Z,19.20
2019-03-19T14:32:44.466Z,19.00
2019-03-19T14:35:13.896Z,18.10
2019-03-19T14:37:46.302Z,18.70
2019-03-19T14:40:16.373Z,18.30
2019-03-19T14:42:47.033Z,18.90
2019-03-19T14:45:16.476Z,17.60
2019-03-19T14:47:45.441Z,17.70
2019-03-19T14:50:15.931Z,17.50
2019-03-19T14:52:45.157Z,16.60
2019-03-19T14:55:14.114Z,16.00
2019-03-19T14:57:43.246Z,16.80
2019-03-19T15:00:13.640Z,16.00
2019-03-19T15:02:42.589Z,14.60
2019-03-19T15:05:11.739Z,15.10
2019-03-19T15:07:40.688Z,15.40
2019-03-19T15:10:11.741Z,14.30
2019-03-19T15:12:40.702Z,14.40
2019-03-19T15:15:10.516Z,14.10
2019-03-19T15:17:38.473Z,14.70
2019-03-19T15:20:08.177Z,14.80
2019-03-19T15:22:36.097Z,14.60
2019-03-19T15:25:05.369Z,15.30
2019-03-19T15:27:34.189Z,16.40
2019-03-19T15:30:02.082Z,17.00
2019-03-19T15:32:30.057Z,17.00
2019-03-19T15:34:57.951Z,16.50
2019-03-19T15:37:26.079Z,16.30
2019-03-19T15:39:54.250Z,16.40
2019-03-19T15:42:22.140Z,16.50
2019-03-19T15:44:50.064Z,16.30
2019-03-19T15:47:21.934Z,15.50
2019-03-19T15:49:53.669Z,15.80
2019-03-19T15:52:22.564Z,17.10
2019-03-19T15:54:51.418Z,16.90
2019-03-19T15:57:23.451Z,16.50
2019-03-19T15:59:52.280Z,17.30
2019-03-19T16:02:21.201Z,15.80
2019-03-19T16:04:51.402Z,16.20
2019-03-19T16:07:20.216Z,16.00
2019-03-19T16:09:49.357Z,16.20
2019-03-19T16:12:19.524Z,16.70
2019-03-19T16:14:51.689Z,16.80
2019-03-19T16:17:19.832Z,16.50
2019-03-19T16:19:49.020Z,16.10
2019-03-19T16:22:16.930Z,15.30
2019-03-19T16:24:45.285Z,15.60
2019-03-19T16:27:14.487Z,15.20
2019-03-19T16:29:42.372Z,14.20
2019-03-19T16:32:11.317Z,13.40
2019-03-19T16:34:39.538Z,13.80
2019-03-19T16:37:08.011Z,15.10
2019-03-19T16:39:40.001Z,14.60
2019-03-19T16:42:07.945Z,13.70
2019-03-19T16:44:36.453Z,14.00
2019-03-19T16:47:04.430Z,13.70
2019-03-19T16:49:32.309Z,13.20
2019-03-19T16:52:03.216Z,12.50
2019-03-19T16:54:34.175Z,11.30
2019-03-19T16:57:02.379Z,10.80
2019-03-19T16:59:30.273Z,10.30
2019-03-19T17:02:01.696Z,10.00
2019-03-19T17:04:33.008Z,9.70
2019-03-19T17:07:00.884Z,9.70
2019-03-19T17:09:28.772Z,9.70
2019-03-19T17:11:56.665Z,9.50
2019-03-19T17:14:24.785Z,9.30
2019-03-19T17:16:58.805Z,9.00
2019-03-19T17:19:29.900Z,8.90
2019-03-19T17:22:01.047Z,8.80
2019-03-19T17:24:29.750Z,8.60
2019-03-19T17:27:00.769Z,8.40
2019-03-19T17:29:28.745Z,7.90
2019-03-19T17:31:56.642Z,7.90
2019-03-19T17:34:27.382Z,7.60
2019-03-19T17:37:01.585Z,7.40
2019-03-19T17:39:29.528Z,7.20
2019-03-19T17:41:57.432Z,6.90
2019-03-19T17:44:28.514Z,6.80
2019-03-19T17:46:56.418Z,6.80
2019-03-19T17:49:25.466Z,7.00
2019-03-19T17:51:53.457Z,7.00
2019-03-19T17:54:21.463Z,6.90
2019-03-19T17:56:49.362Z,6.60
2019-03-19T17:59:20.286Z,6.50
2019-03-19T18:01:51.005Z,6.40
2019-03-19T18:04:22.262Z,6.30
2019-03-19T18:06:50.165Z,6.20
2019-03-19T18:09:18.057Z,6.00
2019-03-19T18:11:51.945Z,5.80
2019-03-19T18:14:22.868Z,5.70
2019-03-19T18:16:50.837Z,5.60
2019-03-19T18:19:18.838Z,5.50
2019-03-19T18:21:46.708Z,5.40
2019-03-19T18:24:14.621Z,5.40
2019-03-19T18:26:42.973Z,5.20
2019-03-19T18:29:12.114Z,5.10
2019-03-19T18:31:41.105Z,5.00
2019-03-19T18:34:10.670Z,5.00
2019-03-19T18:36:38.739Z,4.90
2019-03-19T18:39:07.575Z,4.90
2019-03-19T18:41:35.500Z,4.80
2019-03-19T18:44:03.482Z,4.70
2019-03-19T18:46:31.371Z,4.50
2019-03-19T18:48:59.509Z,4.30
2019-03-19T18:51:27.397Z,4.20
2019-03-19T18:53:55.368Z,4.20
2019-03-19T18:56:23.273Z,4.10
2019-03-19T18:58:51.426Z,4.10
2019-03-19T19:01:19.317Z,3.90
2019-03-19T19:03:47.229Z,3.70
2019-03-19T19:06:15.445Z,3.60
2019-03-19T19:08:44.746Z,3.50
2019-03-19T19:11:12.685Z,3.50
2019-03-19T19:13:40.825Z,3.40
2019-03-19T19:16:09.065Z,3.40
2019-03-19T19:18:37.238Z,3.40
2019-03-19T19:21:05.229Z,3.40
2019-03-19T19:23:33.192Z,3.30
2019-03-19T19:26:01.617Z,3.10
2019-03-19T19:28:29.601Z,3.10
2019-03-19T19:30:57.851Z,3.00
2019-03-19T19:33:25.751Z,3.00
2019-03-19T19:35:53.660Z,3.00
2019-03-19T19:38:21.815Z,3.00
2019-03-19T19:40:49.689Z,2.90
2019-03-19T19:43:17.877Z,2.80
2019-03-19T19:45:45.754Z,2.80
2019-03-19T19:48:13.655Z,2.90
2019-03-19T19:50:41.820Z,2.70
2019-03-19T19:53:09.756Z,2.70
2019-03-19T19:55:37.785Z,2.80
2019-03-19T19:58:10.005Z,2.80
2019-03-19T20:00:40.852Z,2.80
2019-03-19T20:03:12.498Z,2.80
2019-03-19T20:05:47.592Z,2.80
2019-03-19T20:08:17.038Z,2.80
2019-03-19T20:10:44.907Z,2.60
2019-03-19T20:13:13.252Z,2.40
2019-03-19T20:15:41.244Z,2.30
2019-03-19T20:18:09.469Z,2.10
2019-03-19T20:20:37.472Z,2.20
2019-03-19T20:23:06.013Z,2.30
2019-03-19T20:25:35.113Z,2.30
2019-03-19T20:28:03.345Z,2.20
2019-03-19T20:30:31.373Z,2.10
2019-03-19T20:32:59.391Z,2.10
2019-03-19T20:35:27.657Z,2.20
2019-03-19T20:37:56.862Z,2.20
2019-03-19T20:40:25.676Z,2.20
2019-03-19T20:42:53.586Z,2.20
2019-03-19T20:45:21.632Z,2.30
2019-03-19T20:47:49.920Z,2.20
2019-03-19T20:50:22.214Z,2.20
2019-03-19T20:52:50.541Z,2.30
2019-03-19T20:55:18.521Z,2.30
2019-03-19T20:57:46.809Z,2.20
2019-03-19T21:00:15.189Z,2.30
2019-03-19T21:02:43.245Z,2.20
2019-03-19T21:05:11.263Z,2.30
2019-03-19T21:07:40.909Z,2.20
2019-03-19T21:10:10.631Z,2.20
2019-03-19T21:12:38.642Z,2.20
2019-03-19T21:15:09.721Z,2.30
2019-03-19T21:17:37.689Z,2.20
2019-03-19T21:20:06.079Z,2.10
2019-03-19T21:22:34.064Z,2.10
2019-03-19T21:25:02.573Z,2.00
2019-03-19T21:27:30.632Z,1.90
2019-03-19T21:29:58.958Z,1.90
2019-03-19T21:32:30.147Z,1.90
2019-03-19T21:34:58.172Z,1.90
2019-03-19T21:37:27.384Z,1.80
2019-03-19T21:39:55.597Z,1.90
2019-03-19T21:42:23.919Z,1.80
2019-03-19T21:44:54.389Z,1.70
2019-03-19T21:47:23.639Z,1.70
2019-03-19T21:49:54.499Z,1.50
2019-03-19T21:52:22.762Z,1.50
2019-03-19T21:54:51.045Z,1.50
2019-03-19T21:57:19.062Z,1.50
2019-03-19T21:59:47.321Z,1.40
2019-03-19T22:02:15.603Z,1.40
2019-03-19T22:04:43.730Z,1.30
2019-03-19T22:07:14.159Z,1.30
2019-03-19T22:09:43.398Z,1.30
2019-03-19T22:12:12.905Z,1.40
2019-03-19T22:14:42.795Z,1.40
2019-03-19T22:17:10.949Z,1.30
2019-03-19T22:19:40.204Z,1.40
2019-03-19T22:22:08.464Z,1.30
2019-03-19T22:24:36.510Z,1.30
2019-03-19T22:27:04.593Z,1.20
2019-03-19T22:29:32.493Z,1.20
2019-03-19T22:32:00.718Z,1.10
2019-03-19T22:34:29.625Z,1.00
2019-03-19T22:36:57.633Z,1.00
2019-03-19T22:39:25.700Z,1.00
2019-03-19T22:41:53.663Z,1.00
2019-03-19T22:44:22.009Z,1.00
2019-03-19T22:46:49.986Z,1.00
2019-03-19T22:49:21.687Z,1.20
2019-03-19T22:51:49.716Z,1.30
2019-03-19T22:54:17.873Z,1.20
2019-03-19T22:56:53.105Z,1.10
2019-03-19T22:59:21.655Z,1.00
2019-03-19T23:01:49.643Z,1.00
2019-03-19T23:04:26.974Z,0.80
2019-03-19T23:06:47.320Z,0.80
2019-03-19T23:09:18.564Z,0.80
2019-03-19T23:11:46.540Z,0.80
2019-03-19T23:14:18.137Z,0.70
2019-03-19T23:16:46.134Z,0.70
2019-03-19T23:19:14.303Z,0.70
2019-03-19T23:21:42.318Z,0.60
2019-03-19T23:24:10.313Z,0.70
2019-03-19T23:26:38.372Z,0.50
2019-03-19T23:29:09.433Z,0.60
2019-03-19T23:31:40.767Z,0.50
2019-03-19T23:34:08.820Z,0.40
2019-03-19T23:36:37.245Z,0.40
2019-03-19T23:39:06.144Z,0.30
2019-03-19T23:41:34.044Z,0.20
2019-03-19T23:44:05.212Z,0.20
2019-03-19T23:46:33.584Z,0.20
2019-03-19T23:49:04.704Z,0.10
2019-03-19T23:51:32.681Z,0.20
2019-03-19T23:54:00.623Z,0.20
2019-03-19T23:56:28.548Z,0.20
2019-03-19T23:58:56.594Z,0.20
